Time;durP1;ratioP1;P1;durP2;ratioP2;P2;SDS_P1;SDS_P2;PMS_P1;PMS_P2;Temp;Humidity;BMP_temperature;BMP_pressure;BME280_temperature;BME280_humidity;BME280_pressure;Samples;Min_cycle;Max_cycle;Signal;HPM_P1;HPM_P2
2023/08/30 00:01:19;;;;;;;9.57;2.70;;;;;;;24.21;50.41;101368.00;5009012;28;20564;-73
2023/08/30 00:03:49;;;;;;;9.35;3.10;;;;;;;24.28;50.61;101359.09;5005256;28;20049;-72
2023/08/30 00:06:18;;;;;;;7.00;2.10;;;;;;;24.12;50.67;101353.19;5008958;28;20056;-73
2023/08/30 00:08:47;;;;;;;5.43;2.55;;;;;;;24.10;50.33;101357.63;5006097;28;20516;-75
2023/08/30 00:11:18;;;;;;;6.47;2.33;;;;;;;24.06;50.54;101350.66;5006889;28;20054;-75
2023/08/30 00:13:47;;;;;;;3.37;2.40;;;;;;;24.02;49.53;101346.31;5012157;28;20053;-74
2023/08/30 00:16:16;;;;;;;6.00;2.72;;;;;;;24.09;49.96;101353.22;5010660;28;20500;-74
2023/08/30 00:18:45;;;;;;;5.75;2.20;;;;;;;24.14;48.40;101350.50;5009850;28;20049;-77
2023/08/30 00:21:16;;;;;;;6.60;2.30;;;;;;;24.17;47.67;101355.75;5011954;28;20085;-77
2023/08/30 00:23:45;;;;;;;7.38;2.55;;;;;;;24.19;48.32;101353.94;5007128;28;20124;-73
2023/08/30 00:26:13;;;;;;;4.45;2.20;;;;;;;24.21;49.08;101357.44;5010921;28;20127;-73
2023/08/30 00:28:41;;;;;;;6.55;2.50;;;;;;;24.22;49.90;101362.69;5008297;28;20567;-79
2023/08/30 00:31:10;;;;;;;6.03;2.30;;;;;;;24.14;50.50;101350.50;5015843;28;20519;-71
2023/08/30 00:33:41;;;;;;;6.20;2.17;;;;;;;24.25;50.10;101365.28;5008627;28;20046;-75
2023/08/30 00:36:09;;;;;;;4.65;2.30;;;;;;;24.23;50.25;101367.09;5011772;28;20069;-73
2023/08/30 00:38:39;;;;;;;6.13;2.20;;;;;;;24.24;50.43;101362.69;5002539;28;20072;-73
2023/08/30 00:41:08;;;;;;;6.72;2.60;;;;;;;24.28;49.51;101355.56;5004612;28;20134;-77
2023/08/30 00:43:36;;;;;;;7.07;3.42;;;;;;;24.29;46.49;101363.47;5008078;28;20050;-77
2023/08/30 00:46:05;;;;;;;8.82;4.00;;;;;;;24.29;44.76;101360.81;5006193;28;20102;-78
2023/08/30 00:48:34;;;;;;;8.45;4.15;;;;;;;24.35;45.02;101360.72;5010822;28;20484;-77
2023/08/30 00:51:03;;;;;;;7.75;3.63;;;;;;;24.43;44.68;101352.63;5005467;28;20045;-73
2023/08/30 00:53:31;;;;;;;6.03;3.92;;;;;;;24.61;44.49;101349.69;5010526;28;20474;-77
2023/08/30 00:56:02;;;;;;;6.68;4.25;;;;;;;24.77;44.35;101342.31;5006051;28;20054;-82
2023/08/30 00:58:31;;;;;;;6.47;3.45;;;;;;;24.92;43.68;101338.47;5003386;28;20057;-77
2023/08/30 01:01:01;;;;;;;7.55;4.35;;;;;;;25.02;43.53;101336.50;5014363;28;20146;-81
2023/08/30 01:03:30;;;;;;;7.80;3.50;;;;;;;25.11;43.19;101341.63;5012378;28;20054;-74
2023/08/30 01:05:58;;;;;;;6.63;4.13;;;;;;;25.15;43.28;101340.66;5010034;28;20113;-81
2023/08/30 01:08:29;;;;;;;6.30;4.10;;;;;;;25.19;42.93;101339.69;5009061;28;20046;-75
2023/08/30 01:11:07;;;;;;;8.75;4.15;;;;;;;25.15;42.38;101345.03;5002425;28;20046;-80
2023/08/30 01:13:41;;;;;;;5.25;3.70;;;;;;;25.12;43.00;101342.47;5005010;28;20623;-79
2023/08/30 01:16:10;;;;;;;5.80;4.03;;;;;;;25.15;42.89;101337.09;5008876;28;20116;-79
2023/08/30 01:18:41;;;;;;;5.97;4.32;;;;;;;25.21;42.89;101344.94;5001952;28;20096;-80
2023/08/30 01:21:23;;;;;;;6.10;4.25;;;;;;;25.21;42.35;101342.31;4999812;28;20050;-79
2023/08/30 01:23:55;;;;;;;;;;;;;;;25.21;42.36;101343.16;5009257;28;20101;-82
2023/08/30 01:26:40;;;;;;;6.35;4.40;;;;;;;25.18;42.56;101348.53;5004244;28;19930;-86
2023/08/30 01:29:18;;;;;;;11.00;4.55;;;;;;;25.16;42.31;101347.66;5007747;28;20058;-82
2023/08/30 01:31:49;;;;;;;8.73;5.18;;;;;;;25.13;42.71;101347.75;5013175;28;20443;-84
2023/08/30 01:34:18;;;;;;;7.28;5.22;;;;;;;25.09;42.77;101349.56;5004415;28;20065;-78
2023/08/30 01:36:47;;;;;;;9.68;5.50;;;;;;;25.13;42.31;101350.41;5003659;28;20614;-82
2023/08/30 01:39:17;;;;;;;11.80;5.60;;;;;;;25.10;42.27;101353.09;5004778;28;20057;-81
2023/08/30 01:41:46;;;;;;;6.95;5.22;;;;;;;25.05;42.32;101347.03;5009598;28;20057;-81
2023/08/30 01:44:17;;;;;;;9.00;5.05;;;;;;;25.05;42.52;101352.31;5006952;28;20060;-81
2023/08/30 01:46:49;;;;;;;8.80;5.45;;;;;;;25.05;42.56;101347.03;5006815;28;20115;-83
2023/08/30 01:49:21;;;;;;;10.63;5.25;;;;;;;25.07;42.34;101355.81;5003437;28;20053;-78
2023/08/30 01:51:50;;;;;;;8.10;4.80;;;;;;;25.07;42.68;101351.38;5002491;28;20058;-79
2023/08/30 01:54:20;;;;;;;6.40;4.07;;;;;;;25.04;42.13;101353.25;5006988;28;20050;-81
2023/08/30 01:56:49;;;;;;;7.10;4.60;;;;;;;24.95;42.35;101351.66;5006136;28;20054;-80
2023/08/30 01:59:27;;;;;;;6.15;4.10;;;;;;;24.83;42.34;101352.78;5010131;28;20492;-83
2023/08/30 02:02:03;;;;;;;8.15;4.25;;;;;;;24.74;42.74;101350.31;5008498;28;20124;-82
2023/08/30 02:04:37;;;;;;;8.02;4.40;;;;;;;24.68;43.88;101366.31;5002309;28;20551;-80
2023/08/30 02:07:15;;;;;;;8.27;4.75;;;;;;;24.61;43.77;101362.91;5005999;28;20054;-80
2023/08/30 02:09:51;;;;;;;11.98;6.80;;;;;;;24.56;43.53;101364.78;5002634;28;20068;-79
2023/08/30 02:12:24;;;;;;;6.00;3.72;;;;;;;24.44;43.40;101364.94;5004776;28;20622;-81
2023/08/30 02:14:56;;;;;;;6.75;3.40;;;;;;;24.37;43.70;101379.19;5009148;28;20046;-82
2023/08/30 02:17:26;;;;;;;5.50;3.55;;;;;;;24.23;44.09;101382.06;5010714;28;20571;-83
2023/08/30 02:20:00;;;;;;;6.30;3.63;;;;;;;24.15;44.35;101379.56;5005944;28;20057;-79
2023/08/30 02:22:29;;;;;;;5.63;3.45;;;;;;;24.09;44.91;101378.81;5006980;28;20056;-84
2023/08/30 02:24:57;;;;;;;4.97;2.72;;;;;;;24.00;44.55;101380.69;5011810;28;20054;-82
2023/08/30 02:27:26;;;;;;;7.55;3.33;;;;;;;23.92;44.34;101382.59;5011234;28;20048;-82
2023/08/30 02:30:06;;;;;;;4.28;2.88;;;;;;;23.78;44.88;101374.03;5005124;28;20053;-83
2023/08/30 02:32:35;;;;;;;4.28;2.97;;;;;;;23.71;45.42;101382.88;5002196;28;20497;-82
2023/08/30 02:35:04;;;;;;;5.15;2.75;;;;;;;23.60;45.43;101380.41;5007658;28;20109;-84
2023/08/30 02:37:32;;;;;;;6.63;2.90;;;;;;;23.50;45.80;101377.03;5009539;28;20136;-81
2023/08/30 02:40:03;;;;;;;4.75;2.78;;;;;;;23.43;46.54;101380.63;5007926;28;20108;-76
2023/08/30 02:42:35;;;;;;;3.75;2.50;;;;;;;23.35;46.56;101375.47;5014240;28;20060;-74
2023/08/30 02:45:06;;;;;;;3.90;2.45;;;;;;;23.25;46.49;101378.25;5008319;28;20045;-78
2023/08/30 02:47:36;;;;;;;6.93;2.45;;;;;;;23.16;47.27;101388.06;4999644;28;20650;-79
2023/08/30 02:50:08;;;;;;;4.63;2.20;;;;;;;23.12;47.46;101391.63;5006610;28;20502;-80
2023/08/30 02:52:36;;;;;;;5.28;2.78;;;;;;;23.08;47.66;101387.25;5006375;28;20508;-79
2023/08/30 02:55:08;;;;;;;5.03;2.47;;;;;;;23.04;47.89;101397.88;5011393;28;20042;-82
2023/08/30 02:57:38;;;;;;;6.03;2.28;;;;;;;22.97;47.57;101394.41;5006958;28;20445;-75
2023/08/30 03:00:10;;;;;;;5.72;2.40;;;;;;;22.85;47.90;101399.81;5007222;28;20142;-82
2023/08/30 03:02:39;;;;;;;3.50;2.13;;;;;;;22.75;48.57;101410.47;5008774;28;20042;-86
2023/08/30 03:05:08;;;;;;;3.83;1.70;;;;;;;22.70;48.36;101420.22;5005354;28;20041;-84
2023/08/30 03:07:36;;;;;;;4.80;2.10;;;;;;;22.66;48.77;101415.84;5005331;28;20077;-80
2023/08/30 03:10:11;;;;;;;5.50;1.90;;;;;;;22.58;49.26;101415.91;5005763;28;20058;-78
2023/08/30 03:12:40;;;;;;;3.45;1.90;;;;;;;22.51;49.55;101410.72;5003092;28;20091;-81
2023/08/30 03:15:11;;;;;;;3.60;2.20;;;;;;;22.45;49.62;101416.94;5006443;28;20061;-81
2023/08/30 03:17:39;;;;;;;3.95;1.88;;;;;;;22.41;49.76;101419.63;5005351;28;20444;-79
2023/08/30 03:20:15;;;;;;;4.43;1.70;;;;;;;22.32;50.40;101424.06;5006888;28;20054;-79
2023/08/30 03:22:44;;;;;;;5.93;2.45;;;;;;;22.23;50.77;101426.78;5013700;28;20125;-83
2023/08/30 03:25:13;;;;;;;6.72;2.35;;;;;;;22.16;50.70;101425.03;5013059;28;20034;-84
2023/08/30 03:27:41;;;;;;;15.30;2.50;;;;;;;22.12;51.06;101423.31;5008927;28;20231;-81
2023/08/30 03:30:14;;;;;;;9.27;2.20;;;;;;;22.05;51.52;101421.63;5017127;28;20197;-81
2023/08/30 03:32:43;;;;;;;10.73;2.10;;;;;;;22.01;51.34;101427.78;5013049;28;20049;-73
2023/08/30 03:35:20;;;;;;;5.97;2.60;;;;;;;21.94;51.59;101424.31;5019466;28;20049;-84
2023/08/30 03:37:57;;;;;;;4.05;2.10;;;;;;;21.94;51.99;101432.22;5020159;28;20049;-82
2023/08/30 03:40:26;;;;;;;6.15;1.80;;;;;;;21.95;51.66;101432.22;5021659;28;20050;-82
2023/08/30 03:42:55;;;;;;;4.93;1.90;;;;;;;21.95;52.15;101434.84;5009957;28;20508;-84
2023/08/30 03:45:25;;;;;;;4.38;2.10;;;;;;;21.95;52.42;101437.50;5006331;28;20046;-83
2023/08/30 03:47:54;;;;;;;2.88;1.58;;;;;;;21.95;51.72;101444.53;5009328;28;20046;-80
2023/08/30 03:50:22;;;;;;;2.83;1.70;;;;;;;21.96;51.87;101439.22;5010987;28;20053;-80
2023/08/30 03:52:51;;;;;;;3.60;1.52;;;;;;;21.95;51.99;101437.50;5009017;28;20054;-81
2023/08/30 03:55:19;;;;;;;2.60;1.42;;;;;;;21.96;52.48;101452.41;5009000;28;20050;-82
2023/08/30 03:57:48;;;;;;;4.30;1.45;;;;;;;21.96;52.07;101452.41;5013932;28;20053;-82
2023/08/30 04:00:17;;;;;;;2.47;1.52;;;;;;;21.96;51.87;101448.91;5007301;28;20585;-82
2023/08/30 04:02:47;;;;;;;4.50;2.10;;;;;;;21.96;52.48;101455.03;5008982;28;20077;-82
2023/08/30 04:05:16;;;;;;;4.90;1.85;;;;;;;21.95;51.80;101463.84;5010435;28;20056;-84
2023/08/30 04:07:44;;;;;;;3.13;1.80;;;;;;;21.95;52.00;101462.97;5011099;28;20050;-87
2023/08/30 04:10:13;;;;;;;4.70;2.03;;;;;;;21.93;52.43;101462.97;5028403;28;20163;-85
2023/08/30 04:12:46;;;;;;;4.25;1.70;;;;;;;21.93;52.39;101464.75;5023661;28;20046;-87
2023/08/30 04:15:15;;;;;;;5.85;1.80;;;;;;;21.91;52.57;101467.38;5019776;28;20096;-86
2023/08/30 04:17:43;;;;;;;6.18;2.25;;;;;;;21.89;52.45;101471.78;5021563;28;20052;-85
2023/08/30 04:20:14;;;;;;;4.80;1.67;;;;;;;21.86;52.76;101477.06;5015943;28;20057;-85
2023/08/30 04:22:43;;;;;;;5.93;2.00;;;;;;;21.84;53.11;101476.19;5009187;28;20108;-86
2023/08/30 04:25:14;;;;;;;4.30;1.70;;;;;;;21.79;52.77;101469.22;5008652;28;20060;-87
2023/08/30 04:27:43;;;;;;;3.17;1.70;;;;;;;21.74;52.77;101464.84;5009938;28;20122;-87
2023/08/30 04:30:13;;;;;;;3.78;2.05;;;;;;;21.71;53.10;101471.88;5012605;28;20590;-87
2023/08/30 04:32:42;;;;;;;4.72;1.85;;;;;;;21.67;53.32;101478.03;5009061;28;20068;-85
2023/08/30 04:35:15;;;;;;;3.80;1.58;;;;;;;21.64;53.50;101478.06;5016535;28;20057;-86
2023/08/30 04:37:44;;;;;;;4.13;1.60;;;;;;;21.60;53.66;101485.13;5012846;28;20606;-83
2023/08/30 04:40:13;;;;;;;7.10;2.00;;;;;;;21.58;53.95;101489.50;5010512;28;20799;-85
2023/08/30 04:42:42;;;;;;;4.35;1.80;;;;;;;21.56;54.25;101490.41;5013315;28;20057;-84
2023/08/30 04:45:14;;;;;;;4.05;1.80;;;;;;;21.52;54.67;101494.78;5009542;28;20054;-85
2023/08/30 04:47:42;;;;;;;;;;;;;;;21.49;54.28;101492.19;5011070;28;20050;-81
2023/08/30 04:50:11;;;;;;;4.05;1.90;;;;;;;21.44;54.65;101497.47;5010937;28;19997;-84
2023/08/30 04:52:42;;;;;;;5.25;1.88;;;;;;;21.38;54.86;101492.19;5015634;28;20057;-84
2023/08/30 04:55:16;;;;;;;3.63;1.70;;;;;;;21.33;55.50;101494.84;5018822;28;20098;-87
2023/08/30 04:57:47;;;;;;;4.28;1.95;;;;;;;21.30;55.73;101486.06;5008422;28;20045;-85
2023/08/30 05:00:16;;;;;;;4.18;1.88;;;;;;;21.18;56.28;101492.25;5005347;28;20069;-88
2023/08/30 05:02:46;;;;;;;4.38;2.03;;;;;;;21.05;57.70;101488.78;5006037;28;20053;-82
2023/08/30 05:05:17;;;;;;;6.03;2.05;;;;;;;20.96;58.89;101486.16;5013193;28;20058;-83
2023/08/30 05:07:47;;;;;;;2.38;1.70;;;;;;;20.86;60.53;101497.56;5008270;28;20049;-87
2023/08/30 05:10:16;;;;;;;4.38;2.00;;;;;;;20.76;61.15;101485.31;5004660;28;20049;-78
2023/08/30 05:12:49;;;;;;;4.40;2.17;;;;;;;20.66;61.84;101489.69;5015004;28;20038;-81
2023/08/30 05:15:19;;;;;;;4.53;1.95;;;;;;;20.59;62.84;101488.84;5005760;28;20053;-82
2023/08/30 05:17:48;;;;;;;6.13;2.15;;;;;;;20.55;63.30;101494.94;5008230;28;20054;-83
2023/08/30 05:20:17;;;;;;;5.68;1.80;;;;;;;20.54;63.43;101494.91;5008773;28;20770;-82
2023/08/30 05:22:48;;;;;;;4.20;2.22;;;;;;;20.49;64.03;101498.41;5010736;28;20051;-83
2023/08/30 05:25:16;;;;;;;4.05;1.98;;;;;;;20.48;64.45;101501.06;5009566;28;20110;-78
2023/08/30 05:27:47;;;;;;;5.90;2.08;;;;;;;20.50;64.42;101504.53;5005435;28;20050;-85
2023/08/30 05:30:16;;;;;;;7.35;1.95;;;;;;;20.54;64.12;101506.31;5007909;28;20053;-86
2023/08/30 05:32:45;;;;;;;3.88;1.83;;;;;;;20.58;64.78;101497.59;5008038;28;20058;-76
2023/08/30 05:35:13;;;;;;;3.83;1.70;;;;;;;20.60;64.42;101495.84;5007992;28;20050;-81
2023/08/30 05:37:42;;;;;;;3.80;2.00;;;;;;;20.62;63.97;101483.56;5008934;28;20484;-78
2023/08/30 05:40:16;;;;;;;4.82;1.92;;;;;;;20.60;64.11;101493.19;5003504;28;20058;-83
2023/08/30 05:42:45;;;;;;;4.32;1.85;;;;;;;20.59;64.41;101486.22;5010941;28;20038;-81
2023/08/30 05:45:14;;;;;;;3.22;2.08;;;;;;;20.55;64.46;101479.16;5003963;28;20097;-80
2023/08/30 05:47:43;;;;;;;3.70;1.92;;;;;;;20.52;65.08;101476.50;5009571;28;20046;-83
2023/08/30 05:50:15;;;;;;;5.15;1.67;;;;;;;20.46;65.80;101479.16;5007864;28;20049;-80
2023/08/30 05:52:44;;;;;;;4.45;2.13;;;;;;;20.39;66.16;101480.03;5009696;28;20058;-77
2023/08/30 05:55:14;;;;;;;4.50;1.80;;;;;;;20.33;66.48;101487.91;5007316;28;20113;-80
2023/08/30 05:57:43;;;;;;;9.40;1.90;;;;;;;20.27;66.59;101491.38;5006507;28;20385;-81
2023/08/30 06:00:15;;;;;;;4.97;2.00;;;;;;;20.17;67.21;101490.50;5007340;28;20038;-81
2023/08/30 06:02:44;;;;;;;4.25;1.75;;;;;;;20.09;67.81;101495.75;5007905;28;20045;-74
2023/08/30 06:05:13;;;;;;;7.80;2.28;;;;;;;20.04;68.14;101493.97;5005053;28;20046;-81
2023/08/30 06:07:41;;;;;;;4.13;1.75;;;;;;;20.00;68.16;101502.75;5002287;28;20124;-78
2023/08/30 06:10:21;;;;;;;3.30;1.40;;;;;;;19.96;68.52;101512.34;5006380;28;20758;-78
2023/08/30 06:12:49;;;;;;;2.75;1.35;;;;;;;19.94;68.96;101500.97;5002214;28;20056;-79
2023/08/30 06:15:18;;;;;;;2.30;1.48;;;;;;;19.88;69.24;101493.97;5014726;28;20046;-79
2023/08/30 06:17:47;;;;;;;2.50;1.25;;;;;;;19.85;70.17;101507.06;5005980;28;20046;-82
2023/08/30 06:20:17;;;;;;;2.30;1.30;;;;;;;19.88;69.88;101509.72;5004856;28;20060;-81
2023/08/30 06:22:46;;;;;;;4.78;1.25;;;;;;;19.88;69.58;101499.22;5000717;28;20050;-81
2023/08/30 06:25:15;;;;;;;4.88;1.48;;;;;;;19.90;69.59;101506.19;5000590;28;20116;-80
2023/08/30 06:27:58;;;;;;;2.90;1.27;;;;;;;19.85;70.47;101499.19;5005914;28;20054;-83
2023/08/30 06:30:28;;;;;;;5.07;1.48;;;;;;;19.78;71.27;101493.91;5005142;28;20121;-83
2023/08/30 06:32:56;;;;;;;2.33;1.15;;;;;;;19.72;71.38;101497.38;5006423;28;20056;-78
2023/08/30 06:35:25;;;;;;;3.28;1.25;;;;;;;19.70;71.62;101501.78;5005495;28;20109;-84
2023/08/30 06:37:55;;;;;;;3.13;1.25;;;;;;;19.67;71.76;101501.72;5006183;28;20061;-80
2023/08/30 06:40:23;;;;;;;2.63;1.70;;;;;;;19.61;71.73;101499.09;5004392;28;20084;-79
2023/08/30 06:42:54;;;;;;;3.58;1.35;;;;;;;19.56;72.56;101492.91;5007459;28;20086;-83
2023/08/30 06:45:23;;;;;;;2.67;1.23;;;;;;;19.51;73.41;101487.66;5004556;28;20054;-83
2023/08/30 06:47:53;;;;;;;2.95;1.13;;;;;;;19.46;74.24;101500.75;5003344;28;20049;-81
2023/08/30 06:50:25;;;;;;;3.05;1.20;;;;;;;19.39;74.34;101503.34;5004510;28;20077;-81
2023/08/30 06:52:53;;;;;;;2.65;1.02;;;;;;;19.31;75.74;101511.19;5005215;28;20050;-78
2023/08/30 06:55:22;;;;;;;4.13;1.00;;;;;;;19.23;76.32;101519.00;5008911;28;20766;-80
2023/08/30 06:57:51;;;;;;;3.17;1.40;;;;;;;19.19;75.37;101513.72;5001678;28;20472;-82
2023/08/30 07:00:30;;;;;;;3.22;1.58;;;;;;;19.17;75.69;101518.06;5003407;28;20128;-81
2023/08/30 07:02:59;;;;;;;2.50;1.20;;;;;;;19.10;76.04;101513.66;5003764;28;20050;-75
2023/08/30 07:05:28;;;;;;;2.55;1.30;;;;;;;19.07;76.20;101511.03;5004063;28;20424;-80
2023/08/30 07:07:57;;;;;;;2.38;1.10;;;;;;;19.03;76.35;101511.03;5006025;28;20057;-79
2023/08/30 07:10:25;;;;;;;2.95;1.42;;;;;;;19.00;76.98;101508.34;5013975;28;20101;-78
2023/08/30 07:12:54;;;;;;;3.58;1.20;;;;;;;19.00;77.27;101512.72;5006403;28;20041;-82
2023/08/30 07:15:24;;;;;;;4.07;1.70;;;;;;;19.00;77.48;101512.72;5004287;28;20564;-80
2023/08/30 07:17:53;;;;;;;2.50;1.13;;;;;;;18.98;78.00;101502.22;5007443;28;20054;-79
2023/08/30 07:20:21;;;;;;;4.15;1.20;;;;;;;18.90;78.91;101509.19;5011898;28;20507;-79
2023/08/30 07:22:58;;;;;;;1.38;0.95;;;;;;;18.79;79.64;101506.47;5006974;28;20070;-80
2023/08/30 07:25:27;;;;;;;3.08;1.02;;;;;;;18.72;80.39;101501.16;5014391;28;20050;-80
2023/08/30 07:27:56;;;;;;;5.93;1.33;;;;;;;18.65;80.43;101502.84;5007023;28;20054;-80
2023/08/30 07:30:26;;;;;;;3.00;1.10;;;;;;;18.62;80.55;101495.81;5010476;28;20061;-83
2023/08/30 07:32:54;;;;;;;2.38;1.38;;;;;;;18.64;80.65;101508.94;5002231;28;20061;-81
2023/08/30 07:35:23;;;;;;;3.45;1.23;;;;;;;18.60;81.19;101505.41;5011446;28;20042;-80
2023/08/30 07:37:51;;;;;;;5.60;1.50;;;;;;;18.54;81.59;101494.88;5008925;28;20049;-78
2023/08/30 07:40:20;;;;;;;2.95;1.17;;;;;;;18.52;81.67;101506.22;5006871;28;20380;-77
2023/08/30 07:42:52;;;;;;;3.50;1.15;;;;;;;18.51;82.22;101504.44;5008978;28;20105;-80
2023/08/30 07:45:20;;;;;;;3.45;1.10;;;;;;;18.50;81.34;101503.56;5011491;28;20097;-80
2023/08/30 07:47:50;;;;;;;2.67;1.10;;;;;;;18.51;81.56;101494.84;5007551;28;20085;-80
2023/08/30 07:50:19;;;;;;;2.33;1.30;;;;;;;18.52;81.62;101496.59;5006150;28;20500;-81
2023/08/30 07:52:48;;;;;;;1.42;0.80;;;;;;;18.50;81.39;101500.06;5009198;28;20120;-82
2023/08/30 07:55:19;;;;;;;2.38;1.08;;;;;;;18.42;81.07;101487.78;5005760;28;20972;-82
2023/08/30 07:57:47;;;;;;;3.60;1.08;;;;;;;18.47;81.37;101500.06;5006343;28;20096;-81
2023/08/30 08:00:16;;;;;;;3.17;1.23;;;;;;;18.43;81.00;101507.00;4994962;28;20054;-81
2023/08/30 08:02:45;;;;;;;5.00;1.67;;;;;;;18.35;82.49;101503.44;5015819;28;20049;-81
2023/08/30 08:05:15;;;;;;;3.45;1.05;;;;;;;18.27;82.63;101507.72;5009917;28;20694;-82
2023/08/30 08:07:47;;;;;;;2.72;1.10;;;;;;;18.23;82.49;101506.81;5008275;28;20057;-80
2023/08/30 08:10:15;;;;;;;3.35;1.30;;;;;;;18.16;85.05;101503.28;5005852;28;20046;-74
2023/08/30 08:12:44;;;;;;;4.32;1.23;;;;;;;18.05;85.94;101498.75;5006210;28;20062;-78
2023/08/30 08:15:13;;;;;;;4.03;1.10;;;;;;;17.93;87.50;101499.50;5007498;28;20045;-76
2023/08/30 08:17:41;;;;;;;4.03;1.67;;;;;;;17.82;88.61;101508.97;5005519;28;20559;-76
2023/08/30 08:20:10;;;;;;;1.20;1.10;;;;;;;17.72;88.51;101506.22;5005128;28;20120;-81
2023/08/30 08:22:41;;;;;;;1.48;0.85;;;;;;;17.69;88.89;101497.47;5004903;28;20133;-79
2023/08/30 08:25:11;;;;;;;1.42;0.90;;;;;;;17.70;88.09;101491.34;5008582;28;20746;-81
2023/08/30 08:27:39;;;;;;;2.72;1.30;;;;;;;17.69;87.19;101505.31;5008526;28;20519;-82
2023/08/30 08:30:12;;;;;;;1.45;1.13;;;;;;;17.70;89.12;101492.22;5006963;28;20050;-81
2023/08/30 08:32:41;;;;;;;2.22;1.05;;;;;;;17.69;87.92;101485.25;5009485;28;20074;-81
2023/08/30 08:35:10;;;;;;;18.75;1.05;;;;;;;17.71;87.63;101490.50;5004603;28;20053;-80
2023/08/30 08:37:40;;;;;;;2.88;1.20;;;;;;;17.70;87.89;101486.13;5008440;28;20056;-75
2023/08/30 08:40:15;;;;;;;3.72;1.23;;;;;;;17.67;88.76;101486.97;5005728;28;20049;-82
2023/08/30 08:42:44;;;;;;;4.05;1.90;;;;;;;17.63;87.45;101482.56;5007755;28;20136;-81
2023/08/30 08:45:15;;;;;;;3.30;1.33;;;;;;;17.60;88.24;101493.00;5009855;28;20054;-81
2023/08/30 08:47:44;;;;;;;3.95;1.20;;;;;;;17.60;87.79;101493.00;5004604;28;20093;-80
2023/08/30 08:50:16;;;;;;;1.77;0.93;;;;;;;17.59;88.12;101493.84;5006919;28;20423;-79
2023/08/30 08:52:47;;;;;;;4.97;1.30;;;;;;;17.57;89.45;101495.56;5007575;28;20052;-76
2023/08/30 08:55:16;;;;;;;2.83;1.25;;;;;;;17.51;89.37;101500.72;5009623;28;20295;-78
2023/08/30 08:57:46;;;;;;;2.90;1.00;;;;;;;17.48;90.01;101500.69;5012236;28;20129;-75
2023/08/30 09:00:18;;;;;;;2.03;1.08;;;;;;;17.47;89.89;101496.31;5009390;28;20112;-81
2023/08/30 09:02:47;;;;;;;3.13;1.33;;;;;;;17.46;90.50;101502.41;5006914;28;20046;-78
2023/08/30 09:05:16;;;;;;;1.92;0.57;;;;;;;17.43;90.59;101502.34;5008104;28;20077;-82
2023/08/30 09:07:57;;;;;;;;;;;;;;;;;;;;;
2023/08/30 09:10:25;;;;;;;7.38;1.45;;;;;;;17.42;89.07;101509.31;5002847;28;20053;-83
2023/08/30 09:12:54;;;;;;;3.03;1.15;;;;;;;17.41;89.80;101506.69;5004493;28;20563;-81
2023/08/30 09:15:23;;;;;;;3.83;1.45;;;;;;;17.40;89.01;101505.81;5004971;28;20116;-80
2023/08/30 09:17:53;;;;;;;2.60;0.90;;;;;;;17.38;89.69;101505.81;5012331;28;20041;-82
2023/08/30 09:20:23;;;;;;;2.45;0.77;;;;;;;17.39;90.20;101511.91;5013292;28;20074;-81
2023/08/30 09:22:53;;;;;;;1.92;0.95;;;;;;;17.38;89.85;101508.44;5019585;28;20077;-80
2023/08/30 09:25:29;;;;;;;2.00;0.85;;;;;;;17.38;90.97;101502.28;5030662;28;20042;-80
2023/08/30 09:28:03;;;;;;;4.80;1.27;;;;;;;17.33;90.16;101499.63;5028253;28;20093;-82
2023/08/30 09:30:32;;;;;;;1.33;0.82;;;;;;;17.29;90.33;101495.19;5027410;28;20116;-82
2023/08/30 09:33:04;;;;;;;1.35;0.90;;;;;;;17.30;90.81;101502.19;5015457;28;20054;-81
2023/08/30 09:35:32;;;;;;;1.57;0.63;;;;;;;17.29;90.75;101503.03;5011892;28;20129;-79
2023/08/30 09:38:07;;;;;;;1.83;0.80;;;;;;;17.29;91.78;101504.78;5008275;28;20611;-79
2023/08/30 09:40:35;;;;;;;0.98;0.68;;;;;;;17.29;92.02;101505.66;5005976;28;20054;-80
2023/08/30 09:43:04;;;;;;;2.78;1.08;;;;;;;17.32;91.99;101510.94;4999290;28;20096;-78
2023/08/30 09:45:33;;;;;;;5.32;1.10;;;;;;;17.33;92.70;101511.81;5005665;28;20046;-80
2023/08/30 09:48:06;;;;;;;2.92;0.98;;;;;;;17.34;92.13;101514.47;5005535;28;20057;-80
2023/08/30 09:50:36;;;;;;;2.13;0.90;;;;;;;17.35;92.35;101512.72;5005953;28;20042;-81
2023/08/30 09:53:09;;;;;;;1.42;1.02;;;;;;;17.34;92.07;101522.31;5011782;28;20517;-81
2023/08/30 09:55:40;;;;;;;2.17;1.13;;;;;;;17.34;90.73;101514.47;5004897;28;20050;-81
2023/08/30 09:58:09;;;;;;;5.88;1.00;;;;;;;17.34;91.10;101514.47;5006107;28;20050;-80
2023/08/30 10:00:38;;;;;;;2.45;0.80;;;;;;;17.34;91.08;101513.56;4990737;28;20053;-80
2023/08/30 10:03:07;;;;;;;1.88;0.77;;;;;;;17.31;91.09;101514.41;5003898;28;20053;-84
2023/08/30 10:05:37;;;;;;;1.70;1.25;;;;;;;17.29;91.09;101525.69;5006199;28;20061;-84
2023/08/30 10:08:08;;;;;;;5.03;0.95;;;;;;;17.27;90.58;101528.31;5006564;28;20401;-84
2023/08/30 10:10:37;;;;;;;1.40;0.93;;;;;;;17.25;89.91;101522.19;5004492;28;20053;-83
2023/08/30 10:13:07;;;;;;;3.70;0.98;;;;;;;17.21;90.77;101517.75;5002166;28;20101;-82
2023/08/30 10:15:38;;;;;;;5.78;0.93;;;;;;;17.16;90.71;101515.09;5006555;28;20469;-82
2023/08/30 10:18:11;;;;;;;1.67;1.10;;;;;;;17.11;91.99;101523.69;5005536;28;20511;-81
2023/08/30 10:20:39;;;;;;;;;;;;;;;17.07;92.34;101525.41;5007250;28;20046;-82
2023/08/30 10:23:11;;;;;;;1.38;0.95;;;;;;;17.03;93.06;101527.94;5002693;28;19932;-81
2023/08/30 10:25:39;;;;;;;3.15;0.95;;;;;;;17.02;93.29;101534.00;5004767;28;20104;-82
2023/08/30 10:28:17;;;;;;;2.78;1.00;;;;;;;17.00;93.06;101535.75;5005577;28;20057;-80
2023/08/30 10:30:46;;;;;;;1.75;0.90;;;;;;;17.02;93.80;101526.16;5003745;28;20081;-78
2023/08/30 10:33:16;;;;;;;5.78;1.08;;;;;;;17.01;94.42;101529.66;5005492;28;20350;-77
2023/08/30 10:36:04;;;;;;;3.33;1.00;;;;;;;17.01;95.15;101529.66;5006454;28;20037;-77
2023/08/30 10:38:38;;;;;;;2.85;0.85;;;;;;;16.99;94.89;101531.38;5004134;28;20050;-77
2023/08/30 10:41:12;;;;;;;2.30;0.77;;;;;;;17.01;95.82;101527.03;5005490;28;20133;-81
2023/08/30 10:43:40;;;;;;;3.00;0.95;;;;;;;17.02;96.06;101531.41;5011193;28;20695;-79
2023/08/30 10:46:11;;;;;;;6.93;1.30;;;;;;;16.98;96.43;101525.25;5003652;28;20049;-82
2023/08/30 10:48:42;;;;;;;2.60;0.93;;;;;;;17.01;95.68;101524.44;5003089;28;20606;-80
2023/08/30 10:51:22;;;;;;;1.23;0.80;;;;;;;17.04;95.53;101529.69;5005506;28;20058;-81
2023/08/30 10:54:02;;;;;;;6.05;1.05;;;;;;;17.05;95.56;101526.25;5004263;28;20132;-80
2023/08/30 10:56:35;;;;;;;2.60;0.90;;;;;;;17.07;95.47;101525.41;5004432;28;20053;-81
2023/08/30 10:59:04;;;;;;;2.00;0.98;;;;;;;17.11;95.26;101526.31;5004473;28;20440;-81
2023/08/30 11:01:33;;;;;;;2.05;1.00;;;;;;;17.15;94.73;101528.13;5006665;28;20661;-82
2023/08/30 11:04:03;;;;;;;1.85;0.90;;;;;;;17.18;94.21;101522.97;5002444;28;20049;-82
2023/08/30 11:06:31;;;;;;;3.35;1.23;;;;;;;17.19;94.47;101523.81;5001635;28;20127;-81
2023/08/30 11:09:03;;;;;;;1.15;0.90;;;;;;;17.19;94.83;101527.31;5004714;28;20311;-82
2023/08/30 11:11:32;;;;;;;2.10;1.30;;;;;;;17.20;94.29;101529.06;5006192;28;20104;-80
2023/08/30 11:14:06;;;;;;;1.52;0.98;;;;;;;17.15;94.72;101526.38;4999695;28;20050;-78
2023/08/30 11:16:35;;;;;;;4.38;0.70;;;;;;;17.14;95.05;101522.03;5006386;28;20129;-77
2023/08/30 11:19:05;;;;;;;1.42;0.70;;;;;;;17.15;94.98;101520.28;5007100;28;20132;-79
2023/08/30 11:21:35;;;;;;;3.97;1.02;;;;;;;17.17;94.19;101523.78;5000424;28;20076;-80
2023/08/30 11:24:05;;;;;;;4.45;1.08;;;;;;;17.20;95.36;101515.97;5001821;28;20057;-76
2023/08/30 11:26:40;;;;;;;2.05;1.20;;;;;;;17.16;95.38;101525.53;5005376;28;20721;-77
2023/08/30 11:29:09;;;;;;;2.30;0.95;;;;;;;17.13;95.52;101527.22;5002858;28;20061;-76
2023/08/30 11:31:38;;;;;;;2.92;1.17;;;;;;;17.09;94.97;101512.38;5003626;28;20066;-79
2023/08/30 11:34:06;;;;;;;3.13;0.70;;;;;;;17.05;96.10;101518.41;5001167;28;20054;-78
2023/08/30 11:36:37;;;;;;;3.55;0.80;;;;;;;17.03;95.53;101523.59;5001564;28;20054;-80
2023/08/30 11:39:10;;;;;;;2.40;0.85;;;;;;;17.05;95.50;101511.44;5008655;28;20133;-77
2023/08/30 11:41:46;;;;;;;4.90;1.00;;;;;;;17.03;95.53;101518.38;5004499;28;20050;-79